sensor_id;sensor_type;location;lat;lon;timestamp;temperature;humidity
66594;DHT22;53450;42.584;23.366;2023-04-25T00:00:17;9.52;85.46
66594;DHT22;53450;42.584;23.366;2023-04-25T00:03:08;9.65;85.24
66594;DHT22;53450;42.584;23.366;2023-04-25T00:05:38;9.74;85.00
66594;DHT22;53450;42.584;23.366;2023-04-25T00:08:04;9.64;85.46
66594;DHT22;53450;42.584;23.366;2023-04-25T00:10:31;9.43;86.13
66594;DHT22;53450;42.584;23.366;2023-04-25T00:13:21;9.36;86.60
66594;DHT22;53450;42.584;23.366;2023-04-25T00:16:12;9.13;87.30
66594;DHT22;53450;42.584;23.366;2023-04-25T00:18:42;9.02;87.67
66594;DHT22;53450;42.584;23.366;2023-04-25T00:21:08;9.19;87.63
66594;DHT22;53450;42.584;23.366;2023-04-25T00:23:33;9.30;87.11
66594;DHT22;53450;42.584;23.366;2023-04-25T00:26:02;9.36;86.97
66594;DHT22;53450;42.584;23.366;2023-04-25T00:28:27;9.24;86.94
66594;DHT22;53450;42.584;23.366;2023-04-25T00:30:53;9.20;87.26
66594;DHT22;53450;42.584;23.366;2023-04-25T00:33:19;9.23;87.16
66594;DHT22;53450;42.584;23.366;2023-04-25T00:35:45;9.16;87.17
66594;DHT22;53450;42.584;23.366;2023-04-25T00:38:10;9.30;87.08
66594;DHT22;53450;42.584;23.366;2023-04-25T00:40:36;9.34;86.81
66594;DHT22;53450;42.584;23.366;2023-04-25T00:43:02;9.37;86.35
66594;DHT22;53450;42.584;23.366;2023-04-25T00:45:28;9.26;86.30
66594;DHT22;53450;42.584;23.366;2023-04-25T00:47:55;9.12;86.38
66594;DHT22;53450;42.584;23.366;2023-04-25T00:50:21;9.06;86.54
66594;DHT22;53450;42.584;23.366;2023-04-25T00:52:47;9.10;86.13
66594;DHT22;53450;42.584;23.366;2023-04-25T00:55:12;8.99;86.18
66594;DHT22;53450;42.584;23.366;2023-04-25T00:57:39;8.93;86.37
66594;DHT22;53450;42.584;23.366;2023-04-25T01:00:06;8.85;86.89
66594;DHT22;53450;42.584;23.366;2023-04-25T01:02:35;8.90;86.36
66594;DHT22;53450;42.584;23.366;2023-04-25T01:05:01;8.95;86.61
66594;DHT22;53450;42.584;23.366;2023-04-25T01:07:27;9.06;86.31
66594;DHT22;53450;42.584;23.366;2023-04-25T01:09:53;8.92;86.16
66594;DHT22;53450;42.584;23.366;2023-04-25T01:12:18;8.85;86.17
66594;DHT22;53450;42.584;23.366;2023-04-25T01:14:44;8.88;85.41
66594;DHT22;53450;42.584;23.366;2023-04-25T01:17:11;9.02;85.27
66594;DHT22;53450;42.584;23.366;2023-04-25T01:19:39;9.12;85.19
66594;DHT22;53450;42.584;23.366;2023-04-25T01:22:05;9.03;85.53
66594;DHT22;53450;42.584;23.366;2023-04-25T01:24:32;9.00;85.30
66594;DHT22;53450;42.584;23.366;2023-04-25T01:27:00;9.17;85.48
66594;DHT22;53450;42.584;23.366;2023-04-25T01:29:27;9.16;85.44
66594;DHT22;53450;42.584;23.366;2023-04-25T01:31:53;9.07;85.25
66594;DHT22;53450;42.584;23.366;2023-04-25T01:34:21;9.12;85.22
66594;DHT22;53450;42.584;23.366;2023-04-25T01:36:49;9.03;85.00
66594;DHT22;53450;42.584;23.366;2023-04-25T01:39:15;8.98;84.33
66594;DHT22;53450;42.584;23.366;2023-04-25T01:41:41;8.96;84.65
66594;DHT22;53450;42.584;23.366;2023-04-25T01:44:07;9.15;84.82
66594;DHT22;53450;42.584;23.366;2023-04-25T01:46:33;9.13;84.48
66594;DHT22;53450;42.584;23.366;2023-04-25T01:48:59;9.13;83.74
66594;DHT22;53450;42.584;23.366;2023-04-25T01:51:25;9.15;83.98
66594;DHT22;53450;42.584;23.366;2023-04-25T01:53:52;9.19;84.47
66594;DHT22;53450;42.584;23.366;2023-04-25T01:56:18;9.19;83.95
66594;DHT22;53450;42.584;23.366;2023-04-25T01:58:43;9.33;82.09
66594;DHT22;53450;42.584;23.366;2023-04-25T02:01:32;9.33;81.82
66594;DHT22;53450;42.584;23.366;2023-04-25T02:04:23;9.27;82.83
66594;DHT22;53450;42.584;23.366;2023-04-25T02:06:49;9.41;82.84
66594;DHT22;53450;42.584;23.366;2023-04-25T02:09:15;9.31;82.92
66594;DHT22;53450;42.584;23.366;2023-04-25T02:11:45;9.22;83.63
66594;DHT22;53450;42.584;23.366;2023-04-25T02:14:26;9.07;83.92
66594;DHT22;53450;42.584;23.366;2023-04-25T02:16:59;9.02;84.49
66594;DHT22;53450;42.584;23.366;2023-04-25T02:19:25;9.02;84.79
66594;DHT22;53450;42.584;23.366;2023-04-25T02:21:50;8.93;84.64
66594;DHT22;53450;42.584;23.366;2023-04-25T02:24:16;9.07;84.66
66594;DHT22;53450;42.584;23.366;2023-04-25T02:26:42;9.12;83.97
66594;DHT22;53450;42.584;23.366;2023-04-25T02:29:09;9.28;83.71
66594;DHT22;53450;42.584;23.366;2023-04-25T02:31:35;9.31;83.57
66594;DHT22;53450;42.584;23.366;2023-04-25T02:34:00;9.33;82.69
66594;DHT22;53450;42.584;23.366;2023-04-25T02:36:27;9.37;82.72
66594;DHT22;53450;42.584;23.366;2023-04-25T02:38:53;9.33;81.06
66594;DHT22;53450;42.584;23.366;2023-04-25T02:41:20;9.41;82.97
66594;DHT22;53450;42.584;23.366;2023-04-25T02:43:46;9.33;83.88
66594;DHT22;53450;42.584;23.366;2023-04-25T02:46:12;9.26;83.79
66594;DHT22;53450;42.584;23.366;2023-04-25T02:48:38;9.24;84.05
66594;DHT22;53450;42.584;23.366;2023-04-25T02:51:04;9.37;80.50
66594;DHT22;53450;42.584;23.366;2023-04-25T02:53:30;9.40;81.89
66594;DHT22;53450;42.584;23.366;2023-04-25T02:55:55;9.37;82.84
66594;DHT22;53450;42.584;23.366;2023-04-25T02:58:24;9.34;81.52
66594;DHT22;53450;42.584;23.366;2023-04-25T03:00:51;9.38;82.08
66594;DHT22;53450;42.584;23.366;2023-04-25T03:03:17;9.37;82.54
66594;DHT22;53450;42.584;23.366;2023-04-25T03:05:49;9.33;82.98
66594;DHT22;53450;42.584;23.366;2023-04-25T03:08:18;9.31;82.97
66594;DHT22;53450;42.584;23.366;2023-04-25T03:10:45;9.36;82.81
66594;DHT22;53450;42.584;23.366;2023-04-25T03:13:13;9.40;82.51
66594;DHT22;53450;42.584;23.366;2023-04-25T03:15:41;9.57;80.15
66594;DHT22;53450;42.584;23.366;2023-04-25T03:18:06;9.59;81.12
66594;DHT22;53450;42.584;23.366;2023-04-25T03:20:32;9.55;81.01
66594;DHT22;53450;42.584;23.366;2023-04-25T03:22:58;9.61;79.26
66594;DHT22;53450;42.584;23.366;2023-04-25T03:25:24;9.68;80.22
66594;DHT22;53450;42.584;23.366;2023-04-25T03:27:49;9.52;81.48
66594;DHT22;53450;42.584;23.366;2023-04-25T03:30:15;9.65;79.13
66594;DHT22;53450;42.584;23.366;2023-04-25T03:32:43;9.78;78.51
66594;DHT22;53450;42.584;23.366;2023-04-25T03:35:08;9.78;79.49
66594;DHT22;53450;42.584;23.366;2023-04-25T03:37:34;9.77;79.82
66594;DHT22;53450;42.584;23.366;2023-04-25T03:40:00;9.68;80.19
66594;DHT22;53450;42.584;23.366;2023-04-25T03:42:44;9.73;80.12
66594;DHT22;53450;42.584;23.366;2023-04-25T03:45:10;9.85;79.67
66594;DHT22;53450;42.584;23.366;2023-04-25T03:47:36;9.81;79.92
66594;DHT22;53450;42.584;23.366;2023-04-25T03:50:02;9.94;79.70
66594;DHT22;53450;42.584;23.366;2023-04-25T03:52:28;10.78;77.08
66594;DHT22;53450;42.584;23.366;2023-04-25T03:54:54;11.33;74.48
66594;DHT22;53450;42.584;23.366;2023-04-25T03:57:22;11.61;73.68
66594;DHT22;53450;42.584;23.366;2023-04-25T03:59:48;11.55;74.53
66594;DHT22;53450;42.584;23.366;2023-04-25T04:02:15;11.62;74.58
66594;DHT22;53450;42.584;23.366;2023-04-25T04:04:40;11.42;73.15
66594;DHT22;53450;42.584;23.366;2023-04-25T04:07:06;11.11;74.38
66594;DHT22;53450;42.584;23.366;2023-04-25T04:09:38;10.93;75.03
66594;DHT22;53450;42.584;23.366;2023-04-25T04:12:09;10.80;75.75
66594;DHT22;53450;42.584;23.366;2023-04-25T04:15:01;10.75;75.74
66594;DHT22;53450;42.584;23.366;2023-04-25T04:17:27;10.64;76.92
66594;DHT22;53450;42.584;23.366;2023-04-25T04:19:53;10.56;75.71
66594;DHT22;53450;42.584;23.366;2023-04-25T04:22:19;10.59;76.41
66594;DHT22;53450;42.584;23.366;2023-04-25T04:24:46;10.47;77.53
66594;DHT22;53450;42.584;23.366;2023-04-25T04:27:17;10.46;76.55
66594;DHT22;53450;42.584;23.366;2023-04-25T04:29:52;10.52;77.62
66594;DHT22;53450;42.584;23.366;2023-04-25T04:32:36;10.46;75.87
66594;DHT22;53450;42.584;23.366;2023-04-25T04:35:04;10.53;74.36
66594;DHT22;53450;42.584;23.366;2023-04-25T04:37:32;10.54;75.14
66594;DHT22;53450;42.584;23.366;2023-04-25T04:39:59;10.56;75.55
66594;DHT22;53450;42.584;23.366;2023-04-25T04:42:44;10.46;78.39
66594;DHT22;53450;42.584;23.366;2023-04-25T04:45:36;10.26;79.93
66594;DHT22;53450;42.584;23.366;2023-04-25T04:48:16;9.98;81.22
66594;DHT22;53450;42.584;23.366;2023-04-25T04:51:06;9.94;81.96
66594;DHT22;53450;42.584;23.366;2023-04-25T04:53:52;9.92;82.13
66594;DHT22;53450;42.584;23.366;2023-04-25T04:56:42;9.88;81.94
66594;DHT22;53450;42.584;23.366;2023-04-25T04:59:33;9.89;81.12
66594;DHT22;53450;42.584;23.366;2023-04-25T05:02:15;9.88;80.47
66594;DHT22;53450;42.584;23.366;2023-04-25T05:05:01;10.06;79.07
66594;DHT22;53450;42.584;23.366;2023-04-25T05:07:45;10.06;80.29
66594;DHT22;53450;42.584;23.366;2023-04-25T05:10:40;9.98;80.52
66594;DHT22;53450;42.584;23.366;2023-04-25T05:13:22;9.96;80.22
66594;DHT22;53450;42.584;23.366;2023-04-25T05:16:17;10.09;79.42
66594;DHT22;53450;42.584;23.366;2023-04-25T05:19:18;10.13;79.60
66594;DHT22;53450;42.584;23.366;2023-04-25T05:22:01;10.17;79.13
66594;DHT22;53450;42.584;23.366;2023-04-25T05:24:41;10.37;79.35
66594;DHT22;53450;42.584;23.366;2023-04-25T05:27:10;10.35;77.97
66594;DHT22;53450;42.584;23.366;2023-04-25T05:29:49;10.46;79.20
66594;DHT22;53450;42.584;23.366;2023-04-25T05:32:32;10.26;81.24
66594;DHT22;53450;42.584;23.366;2023-04-25T05:34:59;10.32;81.67
66594;DHT22;53450;42.584;23.366;2023-04-25T05:37:28;10.49;82.42
66594;DHT22;53450;42.584;23.366;2023-04-25T05:40:08;10.05;80.43
66594;DHT22;53450;42.584;23.366;2023-04-25T05:42:59;9.87;83.17
66594;DHT22;53450;42.584;23.366;2023-04-25T05:45:41;9.82;84.50
66594;DHT22;53450;42.584;23.366;2023-04-25T05:48:29;9.46;85.35
66594;DHT22;53450;42.584;23.366;2023-04-25T05:51:14;9.27;86.27
66594;DHT22;53450;42.584;23.366;2023-04-25T05:54:04;9.13;86.59
66594;DHT22;53450;42.584;23.366;2023-04-25T05:56:31;9.36;86.33
66594;DHT22;53450;42.584;23.366;2023-04-25T05:58:56;9.55;85.53
66594;DHT22;53450;42.584;23.366;2023-04-25T06:01:23;9.64;85.29
66594;DHT22;53450;42.584;23.366;2023-04-25T06:03:49;9.77;84.94
66594;DHT22;53450;42.584;23.366;2023-04-25T06:06:16;9.82;84.45
66594;DHT22;53450;42.584;23.366;2023-04-25T06:08:42;9.74;84.26
66594;DHT22;53450;42.584;23.366;2023-04-25T06:11:10;9.75;84.01
66594;DHT22;53450;42.584;23.366;2023-04-25T06:13:36;9.92;83.74
66594;DHT22;53450;42.584;23.366;2023-04-25T06:16:02;10.02;83.14
66594;DHT22;53450;42.584;23.366;2023-04-25T06:18:28;10.10;83.07
66594;DHT22;53450;42.584;23.366;2023-04-25T06:20:53;10.13;82.52
66594;DHT22;53450;42.584;23.366;2023-04-25T06:23:22;10.25;81.79
66594;DHT22;53450;42.584;23.366;2023-04-25T06:25:52;10.22;81.12
66594;DHT22;53450;42.584;23.366;2023-04-25T06:28:18;10.25;80.17
66594;DHT22;53450;42.584;23.366;2023-04-25T06:30:44;10.39;81.20
66594;DHT22;53450;42.584;23.366;2023-04-25T06:33:13;10.64;80.71
66594;DHT22;53450;42.584;23.366;2023-04-25T06:35:40;10.42;80.80
66594;DHT22;53450;42.584;23.366;2023-04-25T06:38:11;10.43;81.47
66594;DHT22;53450;42.584;23.366;2023-04-25T06:40:39;10.46;81.96
66594;DHT22;53450;42.584;23.366;2023-04-25T06:43:06;10.56;82.36
66594;DHT22;53450;42.584;23.366;2023-04-25T06:45:52;10.81;81.57
66594;DHT22;53450;42.584;23.366;2023-04-25T06:48:19;11.10;80.98
66594;DHT22;53450;42.584;23.366;2023-04-25T06:50:45;11.33;80.24
66594;DHT22;53450;42.584;23.366;2023-04-25T06:53:12;11.46;80.63
66594;DHT22;53450;42.584;23.366;2023-04-25T06:55:38;11.80;80.10
66594;DHT22;53450;42.584;23.366;2023-04-25T06:58:14;11.93;78.20
66594;DHT22;53450;42.584;23.366;2023-04-25T07:00:52;11.98;76.56
66594;DHT22;53450;42.584;23.366;2023-04-25T07:03:21;12.18;76.92
66594;DHT22;53450;42.584;23.366;2023-04-25T07:05:48;12.35;76.90
66594;DHT22;53450;42.584;23.366;2023-04-25T07:08:13;12.25;73.63
66594;DHT22;53450;42.584;23.366;2023-04-25T07:10:42;12.18;76.47
66594;DHT22;53450;42.584;23.366;2023-04-25T07:13:08;12.38;74.92
66594;DHT22;53450;42.584;23.366;2023-04-25T07:15:33;12.59;74.21
66594;DHT22;53450;42.584;23.366;2023-04-25T07:18:00;12.86;73.27
66594;DHT22;53450;42.584;23.366;2023-04-25T07:20:26;12.83;73.12
66594;DHT22;53450;42.584;23.366;2023-04-25T07:22:53;12.83;74.47
66594;DHT22;53450;42.584;23.366;2023-04-25T07:25:20;12.79;67.32
66594;DHT22;53450;42.584;23.366;2023-04-25T07:27:46;12.85;64.28
66594;DHT22;53450;42.584;23.366;2023-04-25T07:30:17;12.83;65.41
66594;DHT22;53450;42.584;23.366;2023-04-25T07:32:42;12.79;66.02
66594;DHT22;53450;42.584;23.366;2023-04-25T07:35:08;12.82;66.41
66594;DHT22;53450;42.584;23.366;2023-04-25T07:37:35;12.78;66.45
66594;DHT22;53450;42.584;23.366;2023-04-25T07:40:16;12.88;67.31
66594;DHT22;53450;42.584;23.366;2023-04-25T07:42:49;12.92;66.94
66594;DHT22;53450;42.584;23.366;2023-04-25T07:45:21;12.97;62.79
66594;DHT22;53450;42.584;23.366;2023-04-25T07:47:46;13.02;63.56
66594;DHT22;53450;42.584;23.366;2023-04-25T07:50:12;12.95;61.63
66594;DHT22;53450;42.584;23.366;2023-04-25T07:52:38;13.10;62.54
66594;DHT22;53450;42.584;23.366;2023-04-25T07:55:32;13.07;63.83
66594;DHT22;53450;42.584;23.366;2023-04-25T07:58:07;13.30;63.50
66594;DHT22;53450;42.584;23.366;2023-04-25T08:00:36;13.24;62.06
66594;DHT22;53450;42.584;23.366;2023-04-25T08:03:20;13.40;62.64
66594;DHT22;53450;42.584;23.366;2023-04-25T08:05:47;13.61;60.21
66594;DHT22;53450;42.584;23.366;2023-04-25T08:08:13;13.67;59.21
66594;DHT22;53450;42.584;23.366;2023-04-25T08:10:40;13.38;60.17
66594;DHT22;53450;42.584;23.366;2023-04-25T08:13:06;13.30;58.61
66594;DHT22;53450;42.584;23.366;2023-04-25T08:15:33;13.36;56.36
66594;DHT22;53450;42.584;23.366;2023-04-25T08:17:58;13.34;56.25
66594;DHT22;53450;42.584;23.366;2023-04-25T08:20:25;13.21;59.21
66594;DHT22;53450;42.584;23.366;2023-04-25T08:22:53;13.50;59.72
66594;DHT22;53450;42.584;23.366;2023-04-25T08:25:42;13.44;60.92
66594;DHT22;53450;42.584;23.366;2023-04-25T08:28:10;13.34;58.05
66594;DHT22;53450;42.584;23.366;2023-04-25T08:30:36;13.48;58.71
66594;DHT22;53450;42.584;23.366;2023-04-25T08:33:03;13.71;58.87
66594;DHT22;53450;42.584;23.366;2023-04-25T08:36:01;13.77;59.73
66594;DHT22;53450;42.584;23.366;2023-04-25T08:38:28;13.81;61.09
66594;DHT22;53450;42.584;23.366;2023-04-25T08:40:54;13.67;59.96
66594;DHT22;53450;42.584;23.366;2023-04-25T08:43:23;13.28;60.90
66594;DHT22;53450;42.584;23.366;2023-04-25T08:45:48;13.17;60.20
66594;DHT22;53450;42.584;23.366;2023-04-25T08:48:32;13.02;63.21
66594;DHT22;53450;42.584;23.366;2023-04-25T08:50:58;12.92;64.16
66594;DHT22;53450;42.584;23.366;2023-04-25T08:53:32;12.97;59.74
66594;DHT22;53450;42.584;23.366;2023-04-25T08:56:01;13.06;62.20
66594;DHT22;53450;42.584;23.366;2023-04-25T08:58:33;13.06;59.72
66594;DHT22;53450;42.584;23.366;2023-04-25T09:01:00;13.21;60.65
66594;DHT22;53450;42.584;23.366;2023-04-25T09:03:28;13.44;64.10
66594;DHT22;53450;42.584;23.366;2023-04-25T09:05:55;13.74;61.15
66594;DHT22;53450;42.584;23.366;2023-04-25T09:08:21;13.98;58.24
66594;DHT22;53450;42.584;23.366;2023-04-25T09:10:47;13.78;54.82
66594;DHT22;53450;42.584;23.366;2023-04-25T09:13:14;13.71;56.87
66594;DHT22;53450;42.584;23.366;2023-04-25T09:16:12;13.81;56.23
66594;DHT22;53450;42.584;23.366;2023-04-25T09:19:00;14.13;57.44
66594;DHT22;53450;42.584;23.366;2023-04-25T09:21:27;14.19;56.35
66594;DHT22;53450;42.584;23.366;2023-04-25T09:23:53;14.40;58.01
66594;DHT22;53450;42.584;23.366;2023-04-25T09:26:20;14.37;58.78
66594;DHT22;53450;42.584;23.366;2023-04-25T09:28:46;14.16;59.46
66594;DHT22;53450;42.584;23.366;2023-04-25T09:31:24;13.92;67.42
66594;DHT22;53450;42.584;23.366;2023-04-25T09:33:59;13.83;69.65
66594;DHT22;53450;42.584;23.366;2023-04-25T09:36:27;13.55;72.09
66594;DHT22;53450;42.584;23.366;2023-04-25T09:39:01;13.64;69.54
66594;DHT22;53450;42.584;23.366;2023-04-25T09:41:31;13.57;69.72
66594;DHT22;53450;42.584;23.366;2023-04-25T09:44:01;13.44;69.45
66594;DHT22;53450;42.584;23.366;2023-04-25T09:46:49;13.36;73.09
66594;DHT22;53450;42.584;23.366;2023-04-25T09:49:20;13.13;74.69
66594;DHT22;53450;42.584;23.366;2023-04-25T09:52:02;13.04;74.22
66594;DHT22;53450;42.584;23.366;2023-04-25T09:54:35;12.75;74.18
66594;DHT22;53450;42.584;23.366;2023-04-25T09:57:28;12.65;76.47
66594;DHT22;53450;42.584;23.366;2023-04-25T09:59:56;12.61;75.91
66594;DHT22;53450;42.584;23.366;2023-04-25T10:02:26;12.30;70.63
66594;DHT22;53450;42.584;23.366;2023-04-25T10:04:55;12.17;71.60
66594;DHT22;53450;42.584;23.366;2023-04-25T10:07:29;12.21;74.53
66594;DHT22;53450;42.584;23.366;2023-04-25T10:10:01;12.38;71.98
66594;DHT22;53450;42.584;23.366;2023-04-25T10:12:54;12.61;74.04
66594;DHT22;53450;42.584;23.366;2023-04-25T10:15:21;12.89;72.34
66594;DHT22;53450;42.584;23.366;2023-04-25T10:17:48;13.13;71.37
66594;DHT22;53450;42.584;23.366;2023-04-25T10:20:14;13.36;72.15
66594;DHT22;53450;42.584;23.366;2023-04-25T10:22:42;13.13;64.04
66594;DHT22;53450;42.584;23.366;2023-04-25T10:25:09;12.97;64.28
66594;DHT22;53450;42.584;23.366;2023-04-25T10:27:35;13.10;62.95
66594;DHT22;53450;42.584;23.366;2023-04-25T10:30:06;13.24;60.72
66594;DHT22;53450;42.584;23.366;2023-04-25T10:32:35;13.44;63.46
66594;DHT22;53450;42.584;23.366;2023-04-25T10:35:30;13.31;64.66
66594;DHT22;53450;42.584;23.366;2023-04-25T10:40:25;13.23;63.09
66594;DHT22;53450;42.584;23.366;2023-04-25T10:42:54;13.46;63.11
66594;DHT22;53450;42.584;23.366;2023-04-25T10:45:21;13.61;64.34
66594;DHT22;53450;42.584;23.366;2023-04-25T10:47:47;13.65;63.03
66594;DHT22;53450;42.584;23.366;2023-04-25T10:50:16;13.40;60.80
66594;DHT22;53450;42.584;23.366;2023-04-25T10:52:42;13.21;59.12
66594;DHT22;53450;42.584;23.366;2023-04-25T10:55:08;12.90;61.24
66594;DHT22;53450;42.584;23.366;2023-04-25T11:02:41;11.82;67.54
66594;DHT22;53450;42.584;23.366;2023-04-25T11:05:09;11.46;67.59
66594;DHT22;53450;42.584;23.366;2023-04-25T11:07:48;11.40;67.93
66594;DHT22;53450;42.584;23.366;2023-04-25T11:10:40;11.12;70.28
66594;DHT22;53450;42.584;23.366;2023-04-25T11:13:06;10.98;71.94
66594;DHT22;53450;42.584;23.366;2023-04-25T11:15:32;11.05;73.54
66594;DHT22;53450;42.584;23.366;2023-04-25T11:17:57;11.31;74.79
66594;DHT22;53450;42.584;23.366;2023-04-25T11:20:25;11.76;74.53
66594;DHT22;53450;42.584;23.366;2023-04-25T11:22:51;12.01;68.73
66594;DHT22;53450;42.584;23.366;2023-04-25T11:25:17;12.46;71.62
66594;DHT22;53450;42.584;23.366;2023-04-25T11:27:53;12.65;70.22
66594;DHT22;53450;42.584;23.366;2023-04-25T11:30:19;13.11;69.72
66594;DHT22;53450;42.584;23.366;2023-04-25T11:32:46;13.33;67.74
66594;DHT22;53450;42.584;23.366;2023-04-25T11:35:12;13.23;67.08
66594;DHT22;53450;42.584;23.366;2023-04-25T11:37:39;13.21;67.54
66594;DHT22;53450;42.584;23.366;2023-04-25T11:40:06;13.23;66.82
66594;DHT22;53450;42.584;23.366;2023-04-25T11:42:33;13.07;69.29
66594;DHT22;53450;42.584;23.366;2023-04-25T11:44:59;12.76;71.49
66594;DHT22;53450;42.584;23.366;2023-04-25T11:47:32;12.17;73.52
66594;DHT22;53450;42.584;23.366;2023-04-25T11:50:02;11.97;73.44
66594;DHT22;53450;42.584;23.366;2023-04-25T11:52:41;12.05;73.82
66594;DHT22;53450;42.584;23.366;2023-04-25T11:55:09;11.90;74.51
66594;DHT22;53450;42.584;23.366;2023-04-25T11:57:35;11.87;74.70
66594;DHT22;53450;42.584;23.366;2023-04-25T12:00:15;11.90;75.88
66594;DHT22;53450;42.584;23.366;2023-04-25T12:02:43;11.79;76.82
66594;DHT22;53450;42.584;23.366;2023-04-25T12:05:14;11.70;77.99
66594;DHT22;53450;42.584;23.366;2023-04-25T12:07:41;11.31;72.54
66594;DHT22;53450;42.584;23.366;2023-04-25T12:10:13;11.01;75.64
66594;DHT22;53450;42.584;23.366;2023-04-25T12:12:42;10.57;75.48
66594;DHT22;53450;42.584;23.366;2023-04-25T12:15:16;10.37;77.12
66594;DHT22;53450;42.584;23.366;2023-04-25T12:17:46;10.54;77.79
66594;DHT22;53450;42.584;23.366;2023-04-25T12:20:14;10.45;80.86
66594;DHT22;53450;42.584;23.366;2023-04-25T12:22:42;10.68;81.53
66594;DHT22;53450;42.584;23.366;2023-04-25T12:25:12;10.84;79.52
66594;DHT22;53450;42.584;23.366;2023-04-25T12:27:38;11.12;79.12
66594;DHT22;53450;42.584;23.366;2023-04-25T12:30:07;11.40;79.27
66594;DHT22;53450;42.584;23.366;2023-04-25T12:32:34;11.69;79.88
66594;DHT22;53450;42.584;23.366;2023-04-25T12:34:59;11.91;78.73
66594;DHT22;53450;42.584;23.366;2023-04-25T12:37:25;12.13;79.36
66594;DHT22;53450;42.584;23.366;2023-04-25T12:39:50;12.13;78.82
66594;DHT22;53450;42.584;23.366;2023-04-25T12:42:16;12.05;79.37
66594;DHT22;53450;42.584;23.366;2023-04-25T12:44:42;12.13;79.77
66594;DHT22;53450;42.584;23.366;2023-04-25T12:47:07;12.30;80.38
66594;DHT22;53450;42.584;23.366;2023-04-25T12:49:33;12.51;79.22
66594;DHT22;53450;42.584;23.366;2023-04-25T12:51:59;12.80;71.22
66594;DHT22;53450;42.584;23.366;2023-04-25T12:54:24;12.46;73.47
66594;DHT22;53450;42.584;23.366;2023-04-25T12:56:51;12.14;72.81
66594;DHT22;53450;42.584;23.366;2023-04-25T12:59:42;11.91;73.69
66594;DHT22;53450;42.584;23.366;2023-04-25T13:02:33;11.55;74.87
66594;DHT22;53450;42.584;23.366;2023-04-25T13:04:59;11.52;75.58
66594;DHT22;53450;42.584;23.366;2023-04-25T13:07:24;11.62;74.75
66594;DHT22;53450;42.584;23.366;2023-04-25T13:09:50;11.76;74.65
66594;DHT22;53450;42.584;23.366;2023-04-25T13:12:15;11.77;74.32
66594;DHT22;53450;42.584;23.366;2023-04-25T13:14:41;11.67;75.31
66594;DHT22;53450;42.584;23.366;2023-04-25T13:17:07;11.55;74.99
66594;DHT22;53450;42.584;23.366;2023-04-25T13:19:38;11.79;75.41
66594;DHT22;53450;42.584;23.366;2023-04-25T13:22:04;11.98;76.50
66594;DHT22;53450;42.584;23.366;2023-04-25T13:24:29;11.80;76.31
66594;DHT22;53450;42.584;23.366;2023-04-25T13:26:55;11.80;76.18
66594;DHT22;53450;42.584;23.366;2023-04-25T13:29:21;11.40;74.62
66594;DHT22;53450;42.584;23.366;2023-04-25T13:31:46;11.33;73.63
66594;DHT22;53450;42.584;23.366;2023-04-25T13:34:12;11.32;74.37
66594;DHT22;53450;42.584;23.366;2023-04-25T13:36:38;11.38;74.82
66594;DHT22;53450;42.584;23.366;2023-04-25T13:39:04;11.22;74.24
66594;DHT22;53450;42.584;23.366;2023-04-25T13:41:32;11.51;73.90
66594;DHT22;53450;42.584;23.366;2023-04-25T13:43:58;11.26;72.85
66594;DHT22;53450;42.584;23.366;2023-04-25T13:46:23;11.04;73.43
66594;DHT22;53450;42.584;23.366;2023-04-25T13:48:49;10.78;74.91
66594;DHT22;53450;42.584;23.366;2023-04-25T13:51:15;10.68;77.26
66594;DHT22;53450;42.584;23.366;2023-04-25T13:53:42;10.59;77.56
66594;DHT22;53450;42.584;23.366;2023-04-25T13:56:08;10.49;78.94
66594;DHT22;53450;42.584;23.366;2023-04-25T13:58:34;10.25;78.47
66594;DHT22;53450;42.584;23.366;2023-04-25T14:00:59;10.05;79.36
66594;DHT22;53450;42.584;23.366;2023-04-25T14:03:25;10.05;79.36
66594;DHT22;53450;42.584;23.366;2023-04-25T14:05:51;10.03;80.76
66594;DHT22;53450;42.584;23.366;2023-04-25T14:08:16;10.10;80.91
66594;DHT22;53450;42.584;23.366;2023-04-25T14:10:42;10.09;81.13
66594;DHT22;53450;42.584;23.366;2023-04-25T14:13:08;10.16;80.11
66594;DHT22;53450;42.584;23.366;2023-04-25T14:15:33;10.33;80.04
66594;DHT22;53450;42.584;23.366;2023-04-25T14:18:00;10.54;80.66
66594;DHT22;53450;42.584;23.366;2023-04-25T14:20:51;10.90;80.81
66594;DHT22;53450;42.584;23.366;2023-04-25T14:23:16;11.28;80.45
66594;DHT22;53450;42.584;23.366;2023-04-25T14:25:42;11.55;78.46
66594;DHT22;53450;42.584;23.366;2023-04-25T14:28:09;11.73;78.12
66594;DHT22;53450;42.584;23.366;2023-04-25T14:30:35;11.66;77.51
66594;DHT22;53450;42.584;23.366;2023-04-25T14:33:01;11.42;78.23
66594;DHT22;53450;42.584;23.366;2023-04-25T14:35:27;11.12;80.12
66594;DHT22;53450;42.584;23.366;2023-04-25T14:37:52;11.04;81.88
66594;DHT22;53450;42.584;23.366;2023-04-25T14:40:18;11.04;80.23
66594;DHT22;53450;42.584;23.366;2023-04-25T14:42:47;11.18;80.87
66594;DHT22;53450;42.584;23.366;2023-04-25T14:45:13;11.10;80.22
66594;DHT22;53450;42.584;23.366;2023-04-25T14:47:39;11.07;79.60
66594;DHT22;53450;42.584;23.366;2023-04-25T14:50:06;11.16;79.12
66594;DHT22;53450;42.584;23.366;2023-04-25T18:55:00;8.49;85.23
66594;DHT22;53450;42.584;23.366;2023-04-25T18:57:26;8.42;85.03
66594;DHT22;53450;42.584;23.366;2023-04-25T18:59:52;8.26;85.27
66594;DHT22;53450;42.584;23.366;2023-04-25T19:02:18;8.28;85.85
66594;DHT22;53450;42.584;23.366;2023-04-25T19:04:44;8.17;85.86
66594;DHT22;53450;42.584;23.366;2023-04-25T19:07:11;8.06;86.98
66594;DHT22;53450;42.584;23.366;2023-04-25T19:09:36;8.03;87.33
66594;DHT22;53450;42.584;23.366;2023-04-25T19:12:02;8.10;87.46
66594;DHT22;53450;42.584;23.366;2023-04-25T19:14:30;8.19;87.52
66594;DHT22;53450;42.584;23.366;2023-04-25T19:16:56;8.19;87.35
66594;DHT22;53450;42.584;23.366;2023-04-25T19:19:26;8.30;87.26
66594;DHT22;53450;42.584;23.366;2023-04-25T19:21:51;8.48;87.11
66594;DHT22;53450;42.584;23.366;2023-04-25T19:24:17;8.58;86.77
66594;DHT22;53450;42.584;23.366;2023-04-25T19:26:43;8.72;86.27
66594;DHT22;53450;42.584;23.366;2023-04-25T19:29:10;8.76;86.01
66594;DHT22;53450;42.584;23.366;2023-04-25T19:31:39;8.80;85.66
66594;DHT22;53450;42.584;23.366;2023-04-25T19:34:05;8.80;85.85
66594;DHT22;53450;42.584;23.366;2023-04-25T19:36:31;8.85;85.85
66594;DHT22;53450;42.584;23.366;2023-04-25T19:38:59;8.86;85.43
66594;DHT22;53450;42.584;23.366;2023-04-25T19:41:30;8.75;85.51
66594;DHT22;53450;42.584;23.366;2023-04-25T19:43:58;8.55;85.99
66594;DHT22;53450;42.584;23.366;2023-04-25T19:46:25;8.40;86.42
66594;DHT22;53450;42.584;23.366;2023-04-25T19:48:51;8.30;86.45